Terminal Aerodrome Forecast
Issued by NWS

Home | Current Version | Previous Version | Text Only | Print | Product List | Glossary On
Versions: 1 2 3 4 5 6 7 8 9 10 11 12 13
000
FTUS45 KRIW 040500
TAFCOD
TAF
KCOD 040535Z 0406/0506 20006KT P6SM VCSH SCT050 BKN100
     FM041100 VRB05KT P6SM SCT050
     FM041900 08008KT P6SM VCSH SCT050 BKN100
     FM050200 VRB05KT P6SM BKN090
      AMD LTD TO CLD VIS AND WIND=

USA.gov is the U.S. government's official web portal to all federal, state and local government web resources and services.